Time;durP1;ratioP1;P1;durP2;ratioP2;P2;SDS_P1;SDS_P2;PMS_P1;PMS_P2;Temp;Humidity;BMP_temperature;BMP_pressure;BME280_temperature;BME280_humidity;BME280_pressure;Samples;Min_cycle;Max_cycle;Signal;HPM_P1;HPM_P2
2022/01/01 00:00:17;;;;;;;7.45;4.60;;;21.30;77.70;;;;;;1935109;72;21136;-82
2022/01/01 00:02:48;;;;;;;7.58;5.15;;;21.30;77.90;;;;;;1918038;72;21189;-82
2022/01/01 00:05:19;;;;;;;9.35;5.00;;;21.30;77.90;;;;;;1883304;75;21734;-82
2022/01/01 00:07:49;;;;;;;7.72;5.70;;;21.30;77.90;;;;;;1859687;75;21939;-81
2022/01/01 00:10:21;;;;;;;10.23;5.97;;;21.30;77.60;;;;;;1914476;73;21086;-81
2022/01/01 00:12:52;;;;;;;10.30;5.90;;;21.30;77.40;;;;;;1947026;72;21127;-81
2022/01/01 00:15:23;;;;;;;12.37;7.08;;;21.30;77.80;;;;;;1967327;73;21175;-82
2022/01/01 00:17:54;;;;;;;11.50;7.03;;;21.30;78.00;;;;;;1940436;72;21652;-81
2022/01/01 00:20:25;;;;;;;10.28;6.53;;;21.40;78.00;;;;;;1946526;72;21119;-81
2022/01/01 00:22:56;;;;;;;13.08;6.60;;;21.40;78.00;;;;;;1944342;72;21155;-81
2022/01/01 00:25:27;;;;;;;10.25;6.83;;;21.40;78.00;;;;;;1952560;72;21179;-81
2022/01/01 00:27:57;;;;;;;9.03;5.95;;;21.50;77.80;;;;;;1928652;73;21155;-81
2022/01/01 00:30:28;;;;;;;10.32;5.95;;;21.50;77.80;;;;;;1910719;72;21567;-81
2022/01/01 00:32:58;;;;;;;7.45;5.47;;;21.60;77.70;;;;;;1923297;72;21173;-81
2022/01/01 00:35:29;;;;;;;8.90;5.20;;;21.60;77.60;;;;;;1929434;73;21185;-81
2022/01/01 00:37:59;;;;;;;10.60;5.05;;;21.70;77.20;;;;;;1948864;72;21721;-81
2022/01/01 00:40:30;;;;;;;6.45;4.87;;;21.70;77.10;;;;;;1947496;72;21265;-81
2022/01/01 00:43:02;;;;;;;7.60;5.25;;;21.70;76.90;;;;;;1942382;72;21234;-82
2022/01/01 00:45:33;;;;;;;10.70;5.50;;;21.70;76.90;;;;;;1956724;72;21201;-81
2022/01/01 00:48:04;;;;;;;9.63;5.03;;;21.80;76.80;;;;;;1946254;72;21104;-82
2022/01/01 00:50:35;;;;;;;9.45;5.83;;;21.80;76.70;;;;;;1906576;74;21201;-82
2022/01/01 00:53:06;;;;;;;9.00;5.17;;;21.80;76.40;;;;;;1928406;72;21665;-81
2022/01/01 00:55:37;;;;;;;7.30;5.20;;;21.80;76.40;;;;;;1936459;72;21147;-82
2022/01/01 00:58:08;;;;;;;8.63;5.20;;;21.80;76.10;;;;;;1941900;72;21142;-82
2022/01/01 01:00:38;;;;;;;10.70;5.50;;;21.90;76.40;;;;;;1937997;72;21156;-82
2022/01/01 01:03:11;;;;;;;8.30;6.00;;;21.90;76.50;;;;;;1965515;73;21779;-81
2022/01/01 01:05:45;;;;;;;10.90;6.10;;;21.90;76.90;;;;;;1934848;72;21191;-82
2022/01/01 01:08:17;;;;;;;10.55;6.22;;;22.00;76.20;;;;;;1937018;73;21674;-82
2022/01/01 01:10:48;;;;;;;14.03;6.42;;;22.00;76.30;;;;;;1946581;72;21128;-82
2022/01/01 01:13:20;;;;;;;10.90;6.53;;;22.00;76.00;;;;;;1910199;74;21181;-82
2022/01/01 01:15:52;;;;;;;9.98;6.15;;;22.10;75.60;;;;;;1954195;72;21151;-82
2022/01/01 01:18:23;;;;;;;14.05;6.45;;;22.10;75.70;;;;;;1960228;72;21631;-82
2022/01/01 01:20:53;;;;;;;10.50;6.75;;;22.10;75.40;;;;;;1943507;72;21150;-82
2022/01/01 01:23:24;;;;;;;10.43;6.47;;;22.20;75.50;;;;;;1946775;72;21073;-83
2022/01/01 01:25:56;;;;;;;8.80;6.22;;;22.20;75.80;;;;;;1943173;72;21167;-82
2022/01/01 01:28:28;;;;;;;9.60;6.45;;;22.20;75.50;;;;;;1933868;72;21062;-81
2022/01/01 01:30:59;;;;;;;8.68;6.53;;;22.30;75.30;;;;;;1935415;72;21112;-82
2022/01/01 01:33:31;;;;;;;11.83;6.60;;;22.30;75.10;;;;;;1947337;72;21163;-82
2022/01/01 01:36:02;;;;;;;9.43;6.80;;;22.30;75.30;;;;;;1935783;72;21584;-82
2022/01/01 01:38:36;;;;;;;11.85;6.92;;;22.30;75.30;;;;;;1934936;72;21149;-82
2022/01/01 01:41:07;;;;;;;12.50;7.20;;;22.40;75.30;;;;;;1941702;73;21679;-82
2022/01/01 01:43:38;;;;;;;9.78;6.70;;;22.40;75.30;;;;;;1940132;73;21624;-82
2022/01/01 01:46:12;;;;;;;9.08;5.40;;;22.40;75.30;;;;;;1929684;72;21211;-82
2022/01/01 01:48:43;;;;;;;10.03;5.80;;;22.40;75.10;;;;;;1924209;73;21139;-83
2022/01/01 01:51:14;;;;;;;10.05;5.83;;;22.50;75.00;;;;;;1939332;72;21065;-82
2022/01/01 01:53:44;;;;;;;9.58;4.70;;;22.50;74.70;;;;;;1936336;73;21166;-82
2022/01/01 01:56:15;;;;;;;9.83;5.70;;;22.50;74.60;;;;;;1958283;73;21201;-82
2022/01/01 01:58:46;;;;;;;9.28;5.65;;;22.60;74.60;;;;;;1945286;72;21102;-81
2022/01/01 02:01:20;;;;;;;7.65;5.30;;;22.60;74.70;;;;;;1949006;72;21129;-82
2022/01/01 02:03:50;;;;;;;9.00;5.45;;;22.60;74.70;;;;;;1945775;72;21146;-82
2022/01/01 02:06:21;;;;;;;8.50;5.17;;;22.70;74.50;;;;;;1944957;72;21128;-82
2022/01/01 02:08:53;;;;;;;7.90;5.53;;;22.70;74.50;;;;;;1956998;72;21064;-82
2022/01/01 02:11:24;;;;;;;10.08;5.78;;;22.80;74.30;;;;;;1919618;72;21139;-82
2022/01/01 02:16:37;;;;;;;9.43;5.70;;;22.90;74.30;;;;;;1917744;74;21148;-82
2022/01/01 02:18:59;;;;;;;10.10;5.05;;;23.00;73.80;;;;;;1906086;74;21100;-83
2022/01/01 02:21:32;;;;;;;8.35;5.03;;;23.00;73.20;;;;;;1955248;72;21209;-82
2022/01/01 02:24:04;;;;;;;11.08;5.00;;;23.10;73.10;;;;;;1956756;72;22049;-83
2022/01/01 02:26:35;;;;;;;9.58;4.65;;;23.20;72.00;;;;;;1949761;72;21118;-81
2022/01/01 02:29:06;;;;;;;9.65;4.60;;;23.30;71.90;;;;;;1951780;72;21672;-82
2022/01/01 02:31:37;;;;;;;7.90;4.70;;;23.30;71.60;;;;;;1947000;72;21629;-83
2022/01/01 02:34:10;;;;;;;10.38;4.75;;;23.40;71.10;;;;;;1929740;73;21080;-80
2022/01/01 02:36:43;;;;;;;8.73;5.33;;;23.50;71.00;;;;;;1954886;72;21572;-82
2022/01/01 02:39:17;;;;;;;10.55;4.67;;;23.50;70.60;;;;;;1963387;72;21554;-82
2022/01/01 02:41:51;;;;;;;8.75;4.90;;;23.60;70.50;;;;;;1923426;72;21155;-83
2022/01/01 02:44:24;;;;;;;7.67;4.92;;;23.60;70.20;;;;;;1945108;72;21190;-82
2022/01/01 02:46:56;;;;;;;9.08;4.80;;;23.70;70.10;;;;;;1944552;72;21577;-81
2022/01/01 02:49:28;;;;;;;8.23;5.08;;;23.70;70.00;;;;;;1934125;72;21202;-82
2022/01/01 02:51:58;;;;;;;7.60;4.67;;;23.80;70.20;;;;;;1901833;73;21201;-83
2022/01/01 02:54:29;;;;;;;8.80;4.50;;;23.90;69.80;;;;;;1921101;72;21142;-82
2022/01/01 02:57:00;;;;;;;7.37;4.37;;;23.90;69.00;;;;;;1948266;72;21206;-83
2022/01/01 02:59:31;;;;;;;7.92;4.55;;;24.00;69.20;;;;;;1922640;72;21080;-83
2022/01/01 03:02:02;;;;;;;5.83;4.33;;;24.00;69.10;;;;;;1933483;72;21142;-81
2022/01/01 03:04:33;;;;;;;8.33;4.95;;;24.10;69.20;;;;;;1898665;74;21227;-82
2022/01/01 03:07:04;;;;;;;10.08;4.83;;;24.20;68.70;;;;;;1864076;76;21160;-82
2022/01/01 03:09:35;;;;;;;7.78;4.55;;;24.20;68.60;;;;;;1935241;72;21584;-82
2022/01/01 03:12:09;;;;;;;7.83;4.78;;;24.30;68.50;;;;;;1930022;73;21237;-82
2022/01/01 03:14:39;;;;;;;7.40;4.22;;;24.30;68.20;;;;;;1939030;73;21151;-82
2022/01/01 03:17:10;;;;;;;9.50;4.80;;;24.40;67.90;;;;;;1935660;72;21521;-83
2022/01/01 03:19:41;;;;;;;8.50;4.55;;;24.40;69.00;;;;;;1935915;73;21108;-82
2022/01/01 03:22:12;;;;;;;9.18;4.28;;;24.40;67.90;;;;;;1928194;72;21115;-83
2022/01/01 03:24:42;;;;;;;9.00;4.85;;;24.50;67.60;;;;;;1946598;72;21217;-82
2022/01/01 03:27:13;;;;;;;9.50;4.42;;;24.60;67.50;;;;;;1947274;72;21144;-82
2022/01/01 03:29:43;;;;;;;6.67;4.55;;;24.60;67.00;;;;;;1894191;74;21909;-82
2022/01/01 03:32:15;;;;;;;6.95;4.42;;;24.70;66.80;;;;;;1926653;72;21840;-82
2022/01/01 03:34:46;;;;;;;8.40;4.15;;;24.70;67.10;;;;;;1942216;72;21178;-81
2022/01/01 03:37:20;;;;;;;6.03;4.30;;;24.80;66.70;;;;;;1910093;74;21140;-83
2022/01/01 03:40:14;;;;;;;8.23;4.63;;;24.80;66.40;;;;;;1927819;72;21134;-84
2022/01/01 03:43:38;;;;;;;7.78;4.12;;;24.90;66.70;;;;;;1812571;75;21166;-84
2022/01/01 03:46:06;;;;;;;5.55;4.05;;;25.00;66.10;;;;;;1913703;73;21683;-82
2022/01/01 03:48:36;;;;;;;7.67;4.22;;;25.10;66.40;;;;;;1942274;72;21632;-82
2022/01/01 03:51:07;;;;;;;8.83;4.40;;;25.20;66.00;;;;;;1936949;72;21649;-81
2022/01/01 03:53:38;;;;;;;6.85;4.53;;;25.30;65.80;;;;;;1934076;73;21108;-80
2022/01/01 03:56:10;;;;;;;8.43;4.35;;;25.30;65.10;;;;;;1915422;74;21184;-82
2022/01/01 03:58:42;;;;;;;9.33;4.33;;;25.50;65.40;;;;;;1927574;74;21119;-81
2022/01/01 04:01:13;;;;;;;7.45;4.35;;;25.50;64.70;;;;;;1915942;74;21223;-81
2022/01/01 04:03:44;;;;;;;9.88;4.17;;;25.60;64.40;;;;;;1934413;74;21670;-82
2022/01/01 04:06:15;;;;;;;8.03;4.17;;;25.70;63.60;;;;;;1915674;73;21115;-82
2022/01/01 04:08:46;;;;;;;7.87;4.47;;;25.80;63.70;;;;;;1929278;74;21123;-82
2022/01/01 04:11:17;;;;;;;10.78;4.15;;;25.90;63.70;;;;;;1937158;74;21169;-82
2022/01/01 04:13:47;;;;;;;6.70;4.40;;;25.90;63.20;;;;;;1920459;74;21663;-82
2022/01/01 04:16:19;;;;;;;7.55;5.00;;;26.00;62.90;;;;;;1934218;74;21197;-82
2022/01/01 04:18:50;;;;;;;8.33;4.25;;;26.10;62.90;;;;;;1919655;74;21515;-82
2022/01/01 04:21:22;;;;;;;7.58;3.90;;;26.20;61.80;;;;;;1921456;74;21135;-83
2022/01/01 04:23:53;;;;;;;8.08;4.60;;;26.30;62.40;;;;;;1917575;74;21095;-81
2022/01/01 04:26:25;;;;;;;7.62;4.22;;;26.40;61.70;;;;;;1927042;73;21126;-83
2022/01/01 04:28:56;;;;;;;8.18;4.75;;;26.50;61.30;;;;;;1925055;74;21170;-83
2022/01/01 04:31:26;;;;;;;8.93;3.92;;;26.60;61.20;;;;;;1939142;73;21118;-83
2022/01/01 04:33:59;;;;;;;5.53;3.95;;;26.70;61.40;;;;;;1967391;73;21701;-82
2022/01/01 04:36:29;;;;;;;9.25;4.17;;;26.80;61.20;;;;;;1953525;72;21070;-82
2022/01/01 04:39:00;;;;;;;8.68;4.25;;;26.90;60.50;;;;;;1957262;73;21120;-82
2022/01/01 04:41:30;;;;;;;6.90;4.05;;;26.90;60.20;;;;;;1965138;73;21150;-82
2022/01/01 04:44:02;;;;;;;6.67;4.05;;;26.90;60.20;;;;;;1949994;72;21648;-84
2022/01/01 04:46:33;;;;;;;6.65;4.15;;;27.00;60.10;;;;;;1955651;73;21202;-82
2022/01/01 04:49:03;;;;;;;6.90;4.35;;;27.10;60.40;;;;;;1967762;73;21132;-82
2022/01/01 04:51:34;;;;;;;5.22;3.83;;;27.20;60.00;;;;;;1967337;73;21675;-82
2022/01/01 04:54:11;;;;;;;7.35;4.50;;;27.30;59.70;;;;;;1957209;72;21113;-83
2022/01/01 04:56:43;;;;;;;8.30;4.35;;;27.40;59.80;;;;;;1956868;72;21140;-82
2022/01/01 04:59:09;;;;;;;9.80;5.45;;;27.50;59.40;;;;;;1954151;72;21131;-82
2022/01/01 05:01:40;;;;;;;8.15;4.78;;;27.60;58.70;;;;;;1952381;73;21156;-82
2022/01/01 05:04:25;;;;;;;9.43;4.60;;;27.70;58.50;;;;;;1965573;72;21089;-82
2022/01/01 05:06:49;;;;;;;7.28;3.90;;;27.80;58.60;;;;;;1953805;72;21108;-82
2022/01/01 05:09:17;;;;;;;7.03;4.35;;;27.80;58.50;;;;;;1967006;72;21272;-82
2022/01/01 05:11:48;;;;;;;7.25;3.85;;;27.80;57.80;;;;;;1943077;73;21583;-82
2022/01/01 05:14:19;;;;;;;5.92;4.08;;;27.80;57.50;;;;;;1955939;72;21120;-82
2022/01/01 05:16:51;;;;;;;7.03;4.20;;;27.90;57.90;;;;;;1942901;73;21160;-82
2022/01/01 05:19:21;;;;;;;6.20;4.55;;;28.00;57.80;;;;;;1958200;72;21085;-81
2022/01/01 05:21:55;;;;;;;6.95;4.17;;;28.10;58.00;;;;;;1960685;73;21072;-83
2022/01/01 05:24:24;;;;;;;6.67;3.52;;;28.20;57.60;;;;;;1947250;73;21152;-82
2022/01/01 05:26:57;;;;;;;11.18;5.00;;;28.30;56.90;;;;;;1967570;73;21279;-83
2022/01/01 05:29:27;;;;;;;7.95;3.80;;;28.40;56.50;;;;;;1958184;73;21178;-83
2022/01/01 05:31:58;;;;;;;6.10;3.90;;;28.40;57.20;;;;;;1963054;73;21140;-83
2022/01/01 05:34:28;;;;;;;8.83;4.20;;;28.60;56.40;;;;;;1954977;72;21213;-83
2022/01/01 05:37:00;;;;;;;10.15;4.75;;;28.60;56.20;;;;;;1956885;73;21143;-83
2022/01/01 05:39:30;;;;;;;5.97;4.10;;;28.60;56.00;;;;;;1969024;73;21146;-83
2022/01/01 05:42:01;;;;;;;7.97;4.45;;;28.70;56.30;;;;;;1957334;72;21072;-84
2022/01/01 05:44:32;;;;;;;6.62;4.47;;;28.70;55.80;;;;;;1948936;71;21143;-84
2022/01/01 05:47:03;;;;;;;8.13;4.67;;;28.70;55.70;;;;;;1949088;72;21108;-83
2022/01/01 05:49:34;;;;;;;5.78;3.90;;;28.80;55.40;;;;;;1950426;73;21143;-85
2022/01/01 05:52:05;;;;;;;6.47;4.10;;;28.80;56.10;;;;;;1949336;73;21084;-82
2022/01/01 05:54:35;;;;;;;7.62;4.42;;;28.80;55.70;;;;;;1946833;73;21205;-83
2022/01/01 05:57:06;;;;;;;7.70;4.40;;;28.90;55.70;;;;;;1945750;72;21610;-84
2022/01/01 05:59:40;;;;;;;7.08;3.52;;;28.90;55.60;;;;;;1943708;73;21138;-83
2022/01/01 06:02:09;;;;;;;6.70;3.85;;;28.90;55.70;;;;;;1946697;73;21178;-85
2022/01/01 06:04:40;;;;;;;7.87;3.60;;;28.90;55.80;;;;;;1944485;73;21654;-84
2022/01/01 06:07:11;;;;;;;6.62;3.85;;;28.90;55.10;;;;;;1945164;73;21681;-83
2022/01/01 06:09:41;;;;;;;6.87;3.67;;;28.90;55.00;;;;;;1946436;73;21138;-83
2022/01/01 06:12:12;;;;;;;5.03;3.95;;;29.00;55.40;;;;;;1938389;73;21079;-82
2022/01/01 06:14:43;;;;;;;6.33;3.98;;;29.00;55.70;;;;;;1944252;72;21243;-82
2022/01/01 06:17:13;;;;;;;8.90;4.40;;;29.00;54.90;;;;;;1943986;72;21120;-83
2022/01/01 06:19:44;;;;;;;6.42;3.67;;;29.00;55.70;;;;;;1944320;73;21186;-82
2022/01/01 06:22:15;;;;;;;9.48;4.47;;;29.00;55.30;;;;;;1945959;73;21552;-82
2022/01/01 06:24:45;;;;;;;7.70;4.40;;;28.90;55.00;;;;;;1943949;73;21135;-82
2022/01/01 06:27:16;;;;;;;7.60;4.15;;;29.00;54.90;;;;;;1939770;73;21136;-81
2022/01/01 06:29:46;;;;;;;8.53;4.03;;;29.00;54.70;;;;;;1943797;73;21189;-83
2022/01/01 06:32:17;;;;;;;5.55;3.85;;;29.10;55.00;;;;;;1947521;73;21271;-82
2022/01/01 06:34:49;;;;;;;6.15;3.92;;;29.10;54.90;;;;;;1944334;73;21081;-82
2022/01/01 06:37:19;;;;;;;6.12;4.10;;;29.10;54.40;;;;;;1943279;73;21118;-83
2022/01/01 06:39:50;;;;;;;10.20;5.03;;;29.10;54.70;;;;;;1943165;73;21208;-84
2022/01/01 06:42:21;;;;;;;7.80;6.30;;;29.10;54.80;;;;;;1945273;73;21226;-82
2022/01/01 06:44:51;;;;;;;7.33;5.00;;;29.20;55.30;;;;;;1939272;73;21205;-82
2022/01/01 06:47:22;;;;;;;9.03;5.10;;;29.20;54.80;;;;;;1944488;73;21124;-83
2022/01/01 06:49:52;;;;;;;6.42;4.45;;;29.20;55.50;;;;;;1945601;73;22222;-82
2022/01/01 06:52:23;;;;;;;6.17;4.28;;;29.20;54.50;;;;;;1944562;72;21170;-82
2022/01/01 06:54:54;;;;;;;6.08;3.75;;;29.20;54.70;;;;;;1945495;73;21612;-82
2022/01/01 06:57:25;;;;;;;6.80;3.95;;;29.30;54.80;;;;;;1944139;73;21113;-82
2022/01/01 06:59:57;;;;;;;6.17;3.62;;;29.30;54.80;;;;;;1945387;73;21129;-82
2022/01/01 07:02:28;;;;;;;7.70;3.62;;;29.30;54.60;;;;;;1944808;73;21081;-81
2022/01/01 07:04:59;;;;;;;7.60;3.98;;;29.30;54.40;;;;;;1945848;73;21156;-83
2022/01/01 07:07:29;;;;;;;7.83;3.62;;;29.30;53.70;;;;;;1945250;73;21098;-81
2022/01/01 07:10:00;;;;;;;6.65;4.03;;;29.30;53.90;;;;;;1946352;73;21588;-82
2022/01/01 07:12:31;;;;;;;7.62;3.65;;;29.30;53.60;;;;;;1943611;73;21154;-83
2022/01/01 07:15:03;;;;;;;5.70;3.98;;;29.30;53.50;;;;;;1955126;73;21126;-82
2022/01/01 07:17:34;;;;;;;6.22;3.90;;;29.20;53.70;;;;;;1961080;73;21138;-83
2022/01/01 07:20:06;;;;;;;5.05;3.45;;;29.20;54.40;;;;;;1956824;72;21152;-82
2022/01/01 07:22:39;;;;;;;4.65;3.50;;;29.20;54.40;;;;;;1956434;73;21193;-82
2022/01/01 07:25:12;;;;;;;7.95;3.80;;;29.20;53.90;;;;;;1963714;73;21171;-82
2022/01/01 07:27:43;;;;;;;8.75;3.87;;;29.20;54.30;;;;;;1965849;72;21628;-82
2022/01/01 07:30:14;;;;;;;6.62;4.20;;;29.30;54.20;;;;;;1956295;73;21072;-82
2022/01/01 07:32:48;;;;;;;6.70;3.95;;;29.30;54.10;;;;;;1951287;73;21268;-82
2022/01/01 07:35:21;;;;;;;6.95;3.83;;;29.30;54.80;;;;;;1942423;73;21242;-82
2022/01/01 07:37:52;;;;;;;6.47;3.87;;;29.30;55.00;;;;;;1957613;72;21225;-82
2022/01/01 07:40:24;;;;;;;6.42;3.95;;;29.30;54.10;;;;;;1953859;73;21225;-83
2022/01/01 07:42:55;;;;;;;6.28;3.92;;;29.30;54.20;;;;;;1955032;73;21866;-83
2022/01/01 07:45:28;;;;;;;7.12;3.58;;;29.30;53.70;;;;;;1963025;72;21163;-84
2022/01/01 07:47:59;;;;;;;4.47;3.80;;;29.30;53.40;;;;;;1960788;73;21187;-82
2022/01/01 07:50:32;;;;;;;7.62;3.65;;;29.30;53.70;;;;;;1959892;72;21583;-82
2022/01/01 07:53:05;;;;;;;7.33;3.67;;;29.40;53.50;;;;;;1965480;73;21093;-81
2022/01/01 07:55:36;;;;;;;8.95;4.03;;;29.30;53.90;;;;;;1967807;73;21199;-84
2022/01/01 07:58:08;;;;;;;8.05;4.30;;;29.30;54.00;;;;;;1956844;73;21830;-84
2022/01/01 08:00:41;;;;;;;9.30;4.00;;;29.30;53.70;;;;;;1948631;72;21242;-82
2022/01/01 08:03:13;;;;;;;5.62;3.42;;;29.20;53.80;;;;;;1968187;72;21080;-83
2022/01/01 08:05:43;;;;;;;7.87;4.03;;;29.20;53.70;;;;;;1971874;72;21112;-83
2022/01/01 08:08:14;;;;;;;6.00;4.03;;;29.20;53.90;;;;;;1949087;72;21168;-84
2022/01/01 08:10:45;;;;;;;6.40;3.70;;;29.20;54.00;;;;;;1943627;72;21551;-83
2022/01/01 08:13:24;;;;;;;8.55;4.00;;;29.20;54.10;;;;;;1964873;72;21226;-83
2022/01/01 08:15:49;;;;;;;7.90;3.90;;;29.20;54.60;;;;;;1965354;72;21096;-84
2022/01/01 08:18:20;;;;;;;6.35;4.22;;;29.10;54.10;;;;;;1954775;72;21220;-83
2022/01/01 08:20:51;;;;;;;4.85;3.50;;;29.10;54.20;;;;;;1958688;72;21406;-83
2022/01/01 08:23:22;;;;;;;6.75;3.90;;;29.10;54.50;;;;;;1960617;72;21587;-83
2022/01/01 08:25:56;;;;;;;6.37;4.33;;;29.00;54.10;;;;;;1973080;72;21132;-84
2022/01/01 08:28:25;;;;;;;9.50;3.72;;;28.90;54.20;;;;;;1944545;72;21707;-84
2022/01/01 08:30:56;;;;;;;6.40;3.50;;;28.90;54.30;;;;;;1957675;72;21077;-83
2022/01/01 08:33:28;;;;;;;7.97;3.75;;;28.90;54.40;;;;;;1964357;72;21151;-84
2022/01/01 08:35:58;;;;;;;7.55;4.08;;;28.90;54.90;;;;;;1970343;73;21152;-84
2022/01/01 08:38:29;;;;;;;9.43;4.22;;;28.80;54.40;;;;;;1963632;72;21131;-83
2022/01/01 08:41:00;;;;;;;5.85;4.00;;;28.80;54.50;;;;;;1946918;73;21120;-84
2022/01/01 08:43:31;;;;;;;5.75;3.95;;;28.80;55.20;;;;;;1960012;72;21128;-83
2022/01/01 08:46:02;;;;;;;7.42;4.50;;;28.80;55.10;;;;;;1957913;72;21132;-83
2022/01/01 08:48:32;;;;;;;6.10;3.80;;;28.80;54.90;;;;;;1951225;72;21118;-83
2022/01/01 08:51:06;;;;;;;8.25;3.90;;;28.80;55.00;;;;;;1948359;72;21125;-83
2022/01/01 08:53:36;;;;;;;5.37;3.77;;;28.70;55.20;;;;;;1948080;72;21575;-83
2022/01/01 08:56:07;;;;;;;6.25;3.62;;;28.70;55.50;;;;;;1947296;72;21204;-83
2022/01/01 08:58:39;;;;;;;6.80;4.20;;;28.70;55.20;;;;;;1966305;72;21111;-83
2022/01/01 09:01:10;;;;;;;8.33;4.45;;;28.60;55.30;;;;;;1965230;72;21583;-83
2022/01/01 09:03:41;;;;;;;9.68;4.00;;;28.60;55.50;;;;;;1953165;72;21540;-84
2022/01/01 09:06:12;;;;;;;5.15;3.55;;;28.50;55.00;;;;;;1953612;72;21591;-85
2022/01/01 09:08:43;;;;;;;6.05;3.35;;;28.50;55.10;;;;;;1971841;72;21876;-86
2022/01/01 09:11:15;;;;;;;4.67;3.35;;;28.50;55.10;;;;;;1943476;72;21543;-83
2022/01/01 09:13:46;;;;;;;5.62;3.70;;;28.50;55.30;;;;;;1943161;72;21180;-82
2022/01/01 09:16:19;;;;;;;7.08;3.75;;;28.50;55.30;;;;;;1942160;72;21099;-85
2022/01/01 09:18:49;;;;;;;7.75;3.87;;;28.50;55.60;;;;;;1952965;72;21115;-83
2022/01/01 09:21:21;;;;;;;8.85;4.45;;;28.50;55.50;;;;;;1959475;72;21052;-84
2022/01/01 09:23:51;;;;;;;6.33;3.83;;;28.50;55.30;;;;;;1964929;72;21138;-82
2022/01/01 09:26:23;;;;;;;6.00;4.05;;;28.60;55.20;;;;;;1936522;74;21143;-82
2022/01/01 09:28:54;;;;;;;6.92;4.45;;;28.50;55.50;;;;;;1949183;73;21607;-83
2022/01/01 09:31:24;;;;;;;6.33;3.77;;;28.50;55.50;;;;;;1972017;72;21160;-85
2022/01/01 09:33:55;;;;;;;6.25;3.65;;;28.50;55.50;;;;;;1970081;72;21179;-85
2022/01/01 09:36:27;;;;;;;9.53;4.12;;;28.40;55.70;;;;;;1963364;72;21143;-83
2022/01/01 09:38:58;;;;;;;6.03;4.00;;;28.40;56.10;;;;;;1951946;72;21228;-82
2022/01/01 09:41:29;;;;;;;7.17;3.80;;;28.30;56.20;;;;;;1964046;72;21638;-83
2022/01/01 09:44:00;;;;;;;6.03;3.90;;;28.30;56.10;;;;;;1954570;72;21215;-83
2022/01/01 09:46:33;;;;;;;6.53;3.55;;;28.30;56.30;;;;;;1959144;72;21095;-84
2022/01/01 09:49:06;;;;;;;7.25;4.22;;;28.30;56.20;;;;;;1943584;72;21224;-84
2022/01/01 09:51:37;;;;;;;9.40;4.97;;;28.30;56.40;;;;;;1970375;72;21113;-83
2022/01/01 09:54:08;;;;;;;7.75;4.15;;;28.20;56.40;;;;;;1954715;72;21204;-83
2022/01/01 09:56:39;;;;;;;8.80;5.12;;;28.20;56.50;;;;;;1963698;72;21100;-83
2022/01/01 09:59:11;;;;;;;6.15;4.37;;;28.10;56.70;;;;;;1971849;72;21127;-80
2022/01/01 10:01:43;;;;;;;5.50;4.22;;;28.00;56.90;;;;;;1954301;72;21682;-82
2022/01/01 10:04:16;;;;;;;6.60;4.40;;;28.00;57.10;;;;;;1914203;74;21271;-84
2022/01/01 10:06:49;;;;;;;8.60;4.53;;;27.90;57.30;;;;;;1946970;72;21180;-84
2022/01/01 10:09:22;;;;;;;6.15;4.45;;;27.90;57.40;;;;;;1945580;72;21120;-83
2022/01/01 10:11:53;;;;;;;7.17;4.58;;;27.80;57.30;;;;;;1918392;73;21143;-83
2022/01/01 10:14:26;;;;;;;9.58;4.83;;;27.70;58.20;;;;;;1939044;73;21123;-82
2022/01/01 10:16:57;;;;;;;6.75;4.78;;;27.70;57.80;;;;;;1966679;72;21189;-82
2022/01/01 10:19:30;;;;;;;8.05;4.87;;;27.60;57.90;;;;;;1929583;74;21113;-82
2022/01/01 10:22:06;;;;;;;6.72;4.75;;;27.60;58.00;;;;;;1916888;74;21550;-83
2022/01/01 10:29:45;;;;;;;10.35;4.92;;;27.40;58.20;;;;;;1914826;74;21221;-83
2022/01/01 10:32:16;;;;;;;6.33;4.70;;;27.40;58.50;;;;;;1914216;74;21154;-83
2022/01/01 10:34:48;;;;;;;7.15;4.90;;;27.40;58.60;;;;;;1915616;74;21514;-83
2022/01/01 10:37:21;;;;;;;6.15;4.50;;;27.30;58.60;;;;;;1913676;73;21204;-83
2022/01/01 10:39:54;;;;;;;7.87;4.55;;;27.30;58.40;;;;;;1914478;74;22045;-84
2022/01/01 10:42:24;;;;;;;9.10;4.90;;;27.30;58.50;;;;;;1915995;74;21478;-83
2022/01/01 10:44:56;;;;;;;8.33;4.85;;;27.30;58.60;;;;;;1913614;75;21120;-83
2022/01/01 10:47:31;;;;;;;8.68;5.08;;;27.20;58.70;;;;;;1915237;74;22054;-82
2022/01/01 10:50:14;;;;;;;8.05;4.72;;;27.20;58.80;;;;;;1914200;73;21248;-82
2022/01/01 10:52:33;;;;;;;9.75;5.40;;;27.10;58.90;;;;;;1912495;72;21084;-82
2022/01/01 10:55:06;;;;;;;11.03;5.50;;;27.00;59.10;;;;;;1913013;73;21142;-82
2022/01/01 10:57:42;;;;;;;14.33;5.65;;;27.10;59.40;;;;;;1913903;74;21193;-82
2022/01/01 11:00:15;;;;;;;9.23;7.25;;;27.00;59.60;;;;;;1913491;74;21280;-82
2022/01/01 11:02:49;;;;;;;10.95;7.87;;;26.90;59.60;;;;;;1916266;74;21102;-83
2022/01/01 11:06:00;;;;;;;10.93;8.25;;;26.90;59.90;;;;;;1914357;74;21143;-82
2022/01/01 11:08:46;;;;;;;16.20;9.83;;;26.90;60.00;;;;;;1846706;75;21904;-83
2022/01/01 11:11:19;;;;;;;14.13;10.13;;;26.80;60.30;;;;;;1855043;74;21685;-83
2022/01/01 11:14:29;;;;;;;14.63;10.78;;;26.80;60.40;;;;;;1882569;73;21232;-83
2022/01/01 11:17:13;;;;;;;12.55;9.03;;;26.80;60.70;;;;;;1886119;74;21095;-82
2022/01/01 11:19:46;;;;;;;12.35;8.40;;;26.80;60.90;;;;;;1893428;74;21239;-81
2022/01/01 11:22:21;;;;;;;11.43;7.50;;;26.70;61.10;;;;;;1895212;74;21811;-82
2022/01/01 11:24:50;;;;;;;10.18;7.55;;;26.70;61.10;;;;;;1904001;75;21135;-82
2022/01/01 11:27:21;;;;;;;11.53;7.67;;;26.70;61.40;;;;;;1902713;74;21250;-83
2022/01/01 11:30:05;;;;;;;8.48;6.22;;;26.70;61.70;;;;;;1889489;74;21736;-80
2022/01/01 11:32:37;;;;;;;;;;;26.70;61.50;;;;;;1899063;74;21088;-82
2022/01/01 11:35:19;;;;;;;8.78;6.35;;;26.70;61.50;;;;;;1908798;73;20221;-82
2022/01/01 11:37:52;;;;;;;10.85;5.97;;;26.70;61.90;;;;;;1870373;74;21127;-82
2022/01/01 11:40:24;;;;;;;10.28;5.92;;;26.70;61.70;;;;;;1835917;76;21144;-82
2022/01/01 11:42:55;;;;;;;8.68;5.90;;;26.60;61.80;;;;;;1856327;74;21169;-82
2022/01/01 11:45:30;;;;;;;9.38;6.62;;;26.60;61.90;;;;;;1919769;72;21558;-82
2022/01/01 11:48:06;;;;;;;12.95;6.90;;;26.60;62.00;;;;;;1941075;72;21597;-82
2022/01/01 11:50:37;;;;;;;10.00;6.87;;;26.60;62.20;;;;;;1959044;72;21128;-81
2022/01/01 11:53:10;;;;;;;12.05;7.20;;;26.60;62.20;;;;;;1948878;72;21141;-82
2022/01/01 11:55:47;;;;;;;10.88;6.40;;;26.60;62.30;;;;;;1927302;73;21127;-81
2022/01/01 11:58:17;;;;;;;10.10;7.35;;;26.60;62.30;;;;;;1920998;73;21139;-82
2022/01/01 12:00:50;;;;;;;11.10;7.50;;;26.60;62.60;;;;;;1935141;73;21292;-81
2022/01/01 12:03:37;;;;;;;10.45;7.45;;;26.60;62.50;;;;;;1928936;72;21040;-81
2022/01/01 12:06:08;;;;;;;12.23;7.33;;;26.60;62.50;;;;;;1842391;76;21225;-82
2022/01/01 12:08:42;;;;;;;14.15;7.90;;;26.60;62.70;;;;;;1843715;77;21188;-81
2022/01/01 12:11:16;;;;;;;12.35;8.15;;;26.60;62.80;;;;;;1845504;76;21106;-81
2022/01/01 12:13:49;;;;;;;16.20;8.00;;;26.60;62.80;;;;;;1845697;77;21228;-83
2022/01/01 12:16:21;;;;;;;11.70;8.28;;;26.60;62.90;;;;;;1843565;77;21712;-83
2022/01/01 12:18:54;;;;;;;11.48;7.40;;;26.50;63.00;;;;;;1850081;77;21177;-82
2022/01/01 12:21:27;;;;;;;11.93;7.45;;;26.50;63.10;;;;;;1818477;77;21122;-83
2022/01/01 12:23:59;;;;;;;12.98;7.78;;;26.50;63.00;;;;;;1848072;76;21207;-83
2022/01/01 12:26:34;;;;;;;9.33;7.05;;;26.50;63.30;;;;;;1810962;76;21262;-82
2022/01/01 12:29:11;;;;;;;9.45;7.05;;;26.50;63.40;;;;;;1826371;76;21159;-82
2022/01/01 12:31:50;;;;;;;14.60;8.38;;;26.50;63.60;;;;;;1840294;76;21158;-82
2022/01/01 12:34:22;;;;;;;11.60;8.30;;;26.40;63.50;;;;;;1812609;76;21118;-82
2022/01/01 12:36:55;;;;;;;12.82;7.90;;;26.40;63.80;;;;;;1802695;77;21107;-82
2022/01/01 12:39:26;;;;;;;11.88;8.13;;;26.40;64.00;;;;;;1809701;77;21319;-82
2022/01/01 12:41:57;;;;;;;12.80;8.45;;;26.40;64.10;;;;;;1837648;76;21173;-82
2022/01/01 12:44:33;;;;;;;14.05;8.80;;;26.40;64.10;;;;;;1828437;76;21250;-82
2022/01/01 12:47:01;;;;;;;11.03;8.35;;;26.30;64.20;;;;;;1837971;76;21177;-82
2022/01/01 12:49:33;;;;;;;14.10;9.50;;;26.30;64.60;;;;;;1830378;76;22604;-83
2022/01/01 12:52:07;;;;;;;14.45;9.28;;;26.30;64.70;;;;;;1845676;76;21138;-82
2022/01/01 12:54:40;;;;;;;17.02;8.70;;;26.20;64.50;;;;;;1834981;76;21150;-82
2022/01/01 12:57:10;;;;;;;12.75;8.48;;;26.20;64.90;;;;;;1834945;76;21131;-82
2022/01/01 12:59:42;;;;;;;12.18;8.28;;;26.20;65.00;;;;;;1834712;76;21222;-81
2022/01/01 13:02:15;;;;;;;12.55;8.68;;;26.10;64.80;;;;;;1852673;76;21091;-83
2022/01/01 13:04:47;;;;;;;10.23;8.20;;;26.10;64.90;;;;;;1819083;76;21626;-82
2022/01/01 13:07:25;;;;;;;11.73;8.35;;;26.00;65.00;;;;;;1814520;77;21155;-82
2022/01/01 13:09:53;;;;;;;14.87;8.65;;;26.00;64.90;;;;;;1817277;76;21190;-82
2022/01/01 13:12:23;;;;;;;12.10;8.13;;;26.00;65.10;;;;;;1817222;77;21634;-82
2022/01/01 13:14:54;;;;;;;13.85;8.70;;;26.00;65.20;;;;;;1825014;76;21677;-82
2022/01/01 13:17:26;;;;;;;11.97;8.75;;;25.90;65.20;;;;;;1833250;76;21636;-81